Cosperville, Indiana
Current Conditions -  °F | °C
As of 12:53 AM on Wednesday 26 Nov 2014 (Local Time) from KGSH Reporting Station
Overcast Overcast  
Wind Chill: 25°   Ceiling: 1700
Heat Index: 25°   Visibility: 10mi
Dew Point: 18°   Wind: 3mph
Humidity: 75%   Direction: NA
Pressure: 30.19"   Gusts: NA
Location:  41.4818°N, 85.481°W
Report Text: KGSH 260553Z AUTO VRB03KT 10SM OVC017 M04/M08 A3019 RMK AO2 SLPNO T10391078 11028 21039 56004
Loading
Personal Weather Stations






























Interactive Weather Map New forecast layout! Learn more

10-Day Weather Forecast

Advertisements
Track Severe Weather on mobile